Tuesday, January 16, 2018, 12:21 PM EST
Back to Local

KJFK, Kennedy International Airport

Location: Rosedale, NY, United States Lat: 40.633
Local Time: 12:21 PM EST (17:21 GMT) Lon: -73.767
Time Zone: US/Eastern Elev: 13 ft

Show me the last for .
Show Decoded

2018-01-16 11:51 METAR KJFK 161651Z 08003KT 10SM FEW015 BKN033 BKN070 OVC200 01/M02 A3048 RMK AO2
                 SLP321 T00111017 =
2018-01-16 10:51 METAR KJFK 161551Z 10005KT 10SM FEW012 BKN034 OVC070 00/M02 A3051 RMK AO2 SLP330
                 T00001022 =
2018-01-16 09:51 METAR KJFK 161451Z 00000KT 10SM FEW012 BKN033 BKN075 OVC200 M01/M03 A3052 RMK
                 AO2 SLP335 T10061033 58003 =
2018-01-16 08:51 METAR KJFK 161351Z 08003KT 10SM FEW016 OVC035 M02/M04 A3053 RMK AO2 SLP337
                 T10171044 =
2018-01-16 07:51 METAR KJFK 161251Z 04007KT 10SM SCT015 BKN034 BKN220 M03/M05 A3053 RMK AO2
                 SLP336 SCT V BKN T10281050 =
2018-01-16 06:51 METAR KJFK 161151Z 04003KT 10SM BKN014 BKN220 M03/M05 A3053 RMK AO2 SLP338
                 T10331050 11033 21050 53004 =
2018-01-16 05:51 METAR KJFK 161051Z 03007KT 10SM OVC013 M03/M05 A3051 RMK AO2 SLP332 T10331050 =
2018-01-16 05:16 METAR KJFK 161016Z 02007KT 10SM OVC010 M04/M06 A3052 RMK AO2 T10391056 =
2018-01-16 04:51 METAR KJFK 160951Z 04008KT 10SM OVC009 M04/M06 A3051 RMK AO2 SLP331 T10391056 =
2018-01-16 03:51 METAR KJFK 160851Z 03007KT 10SM OVC011 M04/M06 A3052 RMK AO2 SLP334 T10391056
                 53004 =
2018-01-16 02:51 METAR KJFK 160751Z 36008KT 10SM OVC012 M04/M06 A3052 RMK AO2 SLP334 T10391061 =
2018-01-16 01:51 METAR KJFK 160651Z 04008KT 10SM OVC013 M04/M07 A3050 RMK AO2 SLP326 T10391067 =
2018-01-16 00:51 METAR KJFK 160551Z 03006KT 10SM OVC013 M05/M08 A3051 RMK AO2 SLP330 T10501078
                 11044 21061 56007 =
2018-01-16 00:37 METAR KJFK 160537Z 02006KT 10SM BKN014 OVC200 M05/M08 A3051 RMK AO2 T10501083 =
2018-01-15 23:51 METAR KJFK 160451Z 06004KT 10SM FEW035 BKN200 M05/M08 A3051 RMK AO2 SLP331
                 T10501083 410111083 =
2018-01-15 22:51 METAR KJFK 160351Z 06006KT 10SM FEW035 M05/M08 A3052 RMK AO2 SLP335 T10501083 =
2018-01-15 21:51 METAR KJFK 160251Z 04006KT 10SM FEW035 FEW130 M05/M09 A3053 RMK AO2 SLP337
                 T10501089 58006 =
2018-01-15 20:51 METAR KJFK 160151Z 04006KT 10SM FEW035 FEW130 FEW250 M05/M08 A3054 RMK AO2
                 SLP340 T10501083 =
2018-01-15 19:51 METAR KJFK 160051Z 04006KT 10SM FEW035 FEW250 M05/M08 A3055 RMK AO2 SLP345
                 T10501083 =
2018-01-15 18:51 METAR KJFK 152351Z 04005KT 10SM FEW037 FEW250 M04/M08 A3055 RMK AO2 SLP343
                 T10441083 11011 21044 50002 =
2018-01-15 17:51 METAR KJFK 152251Z 06010KT 10SM SCT037 SCT250 M03/M08 A3055 RMK AO2 SLP345
                 T10331078 =
2018-01-15 16:51 METAR KJFK 152151Z 04011KT 10SM SCT037 SCT250 M03/M08 A3054 RMK AO2 SLP342
                 T10281078 =
2018-01-15 15:51 METAR KJFK 152051Z 04009KT 10SM BKN037 BKN250 M02/M08 A3054 RMK AO2 SLP341
                 T10171078 56013 =
2018-01-15 14:51 METAR KJFK 151951Z 04012KT 10SM BKN036 BKN250 M02/M08 A3054 RMK AO2 SLP341
                 T10171078 =
2018-01-15 13:51 METAR KJFK 151851Z 03013KT 10SM BKN036 BKN250 M02/M08 A3055 RMK AO2 SLP345
                 T10171083 =
2018-01-15 12:51 METAR KJFK 151751Z 03011KT 10SM BKN033 BKN250 M03/M08 A3058 RMK AO2 SLP354
                 T10281083 11028 21078 58031 =

Support USWX by starting your Amazon purchase here.